Time;durP1;ratioP1;P1;durP2;ratioP2;P2;SDS_P1;SDS_P2;PMS_P1;PMS_P2;Temp;Humidity;BMP_temperature;BMP_pressure;BME280_temperature;BME280_humidity;BME280_pressure;Samples;Min_cycle;Max_cycle;Signal;HPM_P1;HPM_P2
2023/04/06 00:02:17;;;;;;;7.72;3.90;;;;;;;;;;5026652;28;20082;-67
2023/04/06 00:04:42;;;;;;;8.50;3.45;;;;;;;;;;5022087;28;20036;-68
2023/04/06 00:07:07;;;;;;;6.72;3.10;;;;;;;;;;5023239;28;20412;-68
2023/04/06 00:09:33;;;;;;;7.63;3.55;;;;;;;;;;5025707;28;20034;-68
2023/04/06 00:11:58;;;;;;;9.02;3.95;;;;;;;;;;5029605;28;20017;-67
2023/04/06 00:14:23;;;;;;;8.38;3.15;;;;;;;;;;5022735;28;20845;-67
2023/04/06 00:16:48;;;;;;;9.50;3.50;;;;;;;;;;5020052;28;20022;-66
2023/04/06 00:19:13;;;;;;;8.63;3.30;;;;;;;;;;5027555;28;20499;-67
2023/04/06 00:21:39;;;;;;;9.02;3.53;;;;;;;;;;5025380;28;20029;-67
2023/04/06 00:24:04;;;;;;;8.05;3.13;;;;;;;;;;5017061;28;20120;-67
2023/04/06 00:26:29;;;;;;;8.50;2.83;;;;;;;;;;5029574;28;20029;-66
2023/04/06 00:28:54;;;;;;;7.35;3.22;;;;;;;;;;5029533;28;20044;-67
2023/04/06 00:31:20;;;;;;;9.77;3.30;;;;;;;;;;5025145;28;20021;-68
2023/04/06 00:33:45;;;;;;;7.22;3.25;;;;;;;;;;5025150;28;20018;-68
2023/04/06 00:36:10;;;;;;;8.57;3.67;;;;;;;;;;5027270;28;20049;-68
2023/04/06 00:38:35;;;;;;;8.45;3.13;;;;;;;;;;5021543;28;20584;-68
2023/04/06 00:41:00;;;;;;;6.97;3.28;;;;;;;;;;5026992;28;20088;-67
2023/04/06 00:43:25;;;;;;;6.53;3.03;;;;;;;;;;5027673;28;20053;-67
2023/04/06 00:45:51;;;;;;;8.25;3.20;;;;;;;;;;5030594;28;20489;-68
2023/04/06 00:48:16;;;;;;;7.70;3.20;;;;;;;;;;5018276;28;20032;-68
2023/04/06 00:50:41;;;;;;;8.13;3.43;;;;;;;;;;5018614;28;20028;-67
2023/04/06 00:53:07;;;;;;;10.45;3.38;;;;;;;;;;5025793;28;20017;-69
2023/04/06 00:55:32;;;;;;;8.63;3.33;;;;;;;;;;5025949;28;20031;-66
2023/04/06 00:57:58;;;;;;;8.33;3.47;;;;;;;;;;5023777;28;20029;-68
2023/04/06 01:00:24;;;;;;;8.07;3.20;;;;;;;;;;5027091;28;20083;-69
2023/04/06 01:02:49;;;;;;;8.30;3.30;;;;;;;;;;5030312;28;20396;-68
2023/04/06 01:05:14;;;;;;;7.15;3.15;;;;;;;;;;5038599;28;20032;-68
2023/04/06 01:07:39;;;;;;;8.13;3.22;;;;;;;;;;5027965;28;20034;-68
2023/04/06 01:10:05;;;;;;;7.03;3.23;;;;;;;;;;5027399;28;20091;-68
2023/04/06 01:12:30;;;;;;;10.53;3.63;;;;;;;;;;5023881;28;20041;-68
2023/04/06 01:14:55;;;;;;;9.33;3.30;;;;;;;;;;5026109;28;20468;-68
2023/04/06 01:17:21;;;;;;;6.57;3.10;;;;;;;;;;5028984;28;20037;-66
2023/04/06 01:19:47;;;;;;;9.98;3.28;;;;;;;;;;5025161;28;20405;-68
2023/04/06 01:22:16;;;;;;;7.57;3.20;;;;;;;;;;5026162;28;20033;-68
2023/04/06 01:24:41;;;;;;;7.05;2.90;;;;;;;;;;5025368;28;20402;-68
2023/04/06 01:27:06;;;;;;;7.78;2.90;;;;;;;;;;5023222;28;20046;-68
2023/04/06 01:29:32;;;;;;;7.88;3.42;;;;;;;;;;5026334;28;20021;-68
2023/04/06 01:31:57;;;;;;;7.03;3.10;;;;;;;;;;5029121;28;20111;-66
2023/04/06 01:34:22;;;;;;;7.87;3.13;;;;;;;;;;5027065;28;20156;-67
2023/04/06 01:36:47;;;;;;;9.52;3.80;;;;;;;;;;5022666;28;20033;-68
2023/04/06 01:39:12;;;;;;;7.77;3.37;;;;;;;;;;5013784;28;20022;-67
2023/04/06 01:41:37;;;;;;;8.48;3.47;;;;;;;;;;5025132;28;20112;-67
2023/04/06 01:44:03;;;;;;;8.85;3.60;;;;;;;;;;5027644;28;20109;-67
2023/04/06 01:46:28;;;;;;;7.17;3.00;;;;;;;;;;5028160;28;20048;-67
2023/04/06 01:48:53;;;;;;;8.32;2.97;;;;;;;;;;5027027;28;20108;-68
2023/04/06 01:51:18;;;;;;;8.52;3.00;;;;;;;;;;5027951;28;20041;-67
2023/04/06 01:53:43;;;;;;;7.70;3.28;;;;;;;;;;5030018;28;20216;-67
2023/04/06 01:56:09;;;;;;;6.95;3.20;;;;;;;;;;5027170;28;20056;-68
2023/04/06 01:58:34;;;;;;;7.47;3.35;;;;;;;;;;5029018;28;20053;-68
2023/04/06 02:01:00;;;;;;;6.20;2.90;;;;;;;;;;5023687;28;20021;-68
2023/04/06 02:03:25;;;;;;;9.20;3.13;;;;;;;;;;5027119;28;20095;-66
2023/04/06 02:05:50;;;;;;;7.33;2.83;;;;;;;;;;5018339;28;20021;-68
2023/04/06 02:08:15;;;;;;;9.80;3.87;;;;;;;;;;5020121;28;20013;-67
2023/04/06 02:10:40;;;;;;;8.07;3.10;;;;;;;;;;5016736;28;20014;-67
2023/04/06 02:13:05;;;;;;;8.90;3.03;;;;;;;;;;5024153;28;20089;-68
2023/04/06 02:15:31;;;;;;;8.60;3.22;;;;;;;;;;5034030;28;20045;-67
2023/04/06 02:17:57;;;;;;;8.32;3.30;;;;;;;;;;5028798;28;20587;-68
2023/04/06 02:20:22;;;;;;;9.00;3.33;;;;;;;;;;5032914;28;20396;-68
2023/04/06 02:22:47;;;;;;;8.37;3.63;;;;;;;;;;5034476;28;20021;-66
2023/04/06 02:25:12;;;;;;;6.80;3.28;;;;;;;;;;5030617;28;20106;-68
2023/04/06 02:27:37;;;;;;;8.73;3.23;;;;;;;;;;5021918;28;20492;-68
2023/04/06 02:30:03;;;;;;;7.27;3.27;;;;;;;;;;5029770;28;20514;-67
2023/04/06 02:32:28;;;;;;;7.97;3.20;;;;;;;;;;5025256;28;20025;-68
2023/04/06 02:34:53;;;;;;;8.30;2.93;;;;;;;;;;5023945;28;20457;-67
2023/04/06 02:37:18;;;;;;;8.13;3.40;;;;;;;;;;5028370;28;20037;-66
2023/04/06 02:39:44;;;;;;;7.43;3.03;;;;;;;;;;5018192;28;20147;-67
2023/04/06 02:42:09;;;;;;;7.63;2.90;;;;;;;;;;5029848;28;20021;-69
2023/04/06 02:44:34;;;;;;;6.80;2.97;;;;;;;;;;5022298;28;20128;-66
2023/04/06 02:46:59;;;;;;;8.43;3.27;;;;;;;;;;5027635;28;20441;-69
2023/04/06 02:49:25;;;;;;;7.30;2.88;;;;;;;;;;5024951;28;20060;-68
2023/04/06 02:51:50;;;;;;;7.77;3.10;;;;;;;;;;5025874;28;20501;-68
2023/04/06 02:54:15;;;;;;;7.17;2.77;;;;;;;;;;5027944;28;20072;-68
2023/04/06 02:56:40;;;;;;;5.88;2.75;;;;;;;;;;5023487;28;20370;-68
2023/04/06 02:59:05;;;;;;;7.30;2.78;;;;;;;;;;5020780;28;20026;-68
2023/04/06 03:01:30;;;;;;;8.50;3.03;;;;;;;;;;5025749;28;20030;-68
2023/04/06 03:03:56;;;;;;;7.80;3.20;;;;;;;;;;5020384;28;20021;-68
2023/04/06 03:06:21;;;;;;;7.28;3.30;;;;;;;;;;5027659;28;20099;-66
2023/04/06 03:08:47;;;;;;;7.50;3.03;;;;;;;;;;5030778;28;20014;-68
2023/04/06 03:11:12;;;;;;;7.78;3.00;;;;;;;;;;5030896;28;20014;-66
2023/04/06 03:13:38;;;;;;;8.67;3.13;;;;;;;;;;5025969;28;20539;-68
2023/04/06 03:16:03;;;;;;;7.90;3.35;;;;;;;;;;5017873;28;20041;-65
2023/04/06 03:18:29;;;;;;;7.80;3.15;;;;;;;;;;5025336;28;20033;-67
2023/04/06 03:20:54;;;;;;;10.10;4.07;;;;;;;;;;5024358;28;20026;-67
2023/04/06 03:23:20;;;;;;;8.77;3.40;;;;;;;;;;5020576;28;20032;-67
2023/04/06 03:25:45;;;;;;;9.25;3.58;;;;;;;;;;5032550;28;20087;-68
2023/04/06 03:28:11;;;;;;;9.90;3.20;;;;;;;;;;5024563;28;20025;-67
2023/04/06 03:30:36;;;;;;;7.47;3.03;;;;;;;;;;5021911;28;20022;-67
2023/04/06 03:33:01;;;;;;;6.68;3.03;;;;;;;;;;5024124;28;20021;-68
2023/04/06 03:35:26;;;;;;;8.15;3.25;;;;;;;;;;5032067;28;20021;-69
2023/04/06 03:37:51;;;;;;;7.60;3.10;;;;;;;;;;5021395;28;20041;-67
2023/04/06 03:40:17;;;;;;;7.53;3.33;;;;;;;;;;5027803;28;20041;-66
2023/04/06 03:42:42;;;;;;;7.53;3.57;;;;;;;;;;5027784;28;20489;-67
2023/04/06 03:45:07;;;;;;;8.52;3.42;;;;;;;;;;5030822;28;20018;-66
2023/04/06 03:47:32;;;;;;;8.75;3.60;;;;;;;;;;5030052;28;20026;-67
2023/04/06 03:49:57;;;;;;;8.27;3.47;;;;;;;;;;5023966;28;20049;-66
2023/04/06 03:52:23;;;;;;;8.77;3.83;;;;;;;;;;5024686;28;20048;-67
2023/04/06 03:54:48;;;;;;;8.63;3.50;;;;;;;;;;5024112;28;20030;-67
2023/04/06 03:57:13;;;;;;;9.45;3.20;;;;;;;;;;5029258;28;20025;-67
2023/04/06 03:59:38;;;;;;;10.50;3.57;;;;;;;;;;5022818;28;20067;-64
2023/04/06 04:02:04;;;;;;;8.25;3.05;;;;;;;;;;5020267;28;20053;-66
2023/04/06 04:04:29;;;;;;;9.35;3.42;;;;;;;;;;5025672;28;20029;-64
2023/04/06 04:06:54;;;;;;;7.82;3.22;;;;;;;;;;5028760;28;20025;-67
2023/04/06 04:09:19;;;;;;;7.33;3.10;;;;;;;;;;5027456;28;20096;-64
2023/04/06 04:11:44;;;;;;;8.73;3.58;;;;;;;;;;5028098;28;20068;-66
2023/04/06 04:14:09;;;;;;;9.23;3.53;;;;;;;;;;5022927;28;20025;-66
2023/04/06 04:16:35;;;;;;;12.83;3.63;;;;;;;;;;5028016;28;20033;-66
2023/04/06 04:19:00;;;;;;;8.90;3.35;;;;;;;;;;5025086;28;20377;-67
2023/04/06 04:21:25;;;;;;;10.87;3.40;;;;;;;;;;5026643;28;20113;-66
2023/04/06 04:23:50;;;;;;;8.55;3.40;;;;;;;;;;5027465;28;20018;-66
2023/04/06 04:26:16;;;;;;;9.97;3.50;;;;;;;;;;5020154;28;20504;-66
2023/04/06 04:28:41;;;;;;;8.37;3.23;;;;;;;;;;5024933;28;20465;-68
2023/04/06 04:31:06;;;;;;;9.05;3.85;;;;;;;;;;5026360;28;20057;-67
2023/04/06 04:33:31;;;;;;;9.23;3.80;;;;;;;;;;5024572;28;20017;-65
2023/04/06 04:35:56;;;;;;;10.33;4.17;;;;;;;;;;5026791;28;20504;-65
2023/04/06 04:38:21;;;;;;;13.50;5.28;;;;;;;;;;5017994;28;20025;-65
2023/04/06 04:40:46;;;;;;;13.60;5.37;;;;;;;;;;5021598;28;20036;-67
2023/04/06 04:43:11;;;;;;;9.82;4.43;;;;;;;;;;5013986;28;20068;-67
2023/04/06 04:45:37;;;;;;;15.20;4.30;;;;;;;;;;5023573;28;20037;-67
2023/04/06 04:48:02;;;;;;;12.77;3.83;;;;;;;;;;5022694;28;20017;-65
2023/04/06 04:50:27;;;;;;;8.90;3.80;;;;;;;;;;5030168;28;20021;-68
2023/04/06 04:52:52;;;;;;;10.30;3.47;;;;;;;;;;5021669;28;20072;-64
2023/04/06 04:55:17;;;;;;;8.20;4.03;;;;;;;;;;5022488;28;20041;-67
2023/04/06 04:57:42;;;;;;;8.45;3.47;;;;;;;;;;5021911;28;20010;-67
2023/04/06 05:00:08;;;;;;;9.17;4.17;;;;;;;;;;5016354;28;20520;-67
2023/04/06 05:02:33;;;;;;;11.95;4.38;;;;;;;;;;5017015;28;20551;-65
2023/04/06 05:04:58;;;;;;;9.20;4.03;;;;;;;;;;5019986;28;20035;-66
2023/04/06 05:07:24;;;;;;;10.55;4.90;;;;;;;;;;5014476;28;20029;-67
2023/04/06 05:09:49;;;;;;;12.23;4.60;;;;;;;;;;5015977;28;20108;-66
2023/04/06 05:12:14;;;;;;;10.73;3.65;;;;;;;;;;5021053;28;20048;-66
2023/04/06 05:14:40;;;;;;;9.38;3.80;;;;;;;;;;5013853;28;20037;-67
2023/04/06 05:17:05;;;;;;;11.77;4.45;;;;;;;;;;5017614;28;20037;-67
2023/04/06 05:19:30;;;;;;;8.93;3.78;;;;;;;;;;5024668;28;20377;-66
2023/04/06 05:21:55;;;;;;;9.60;4.15;;;;;;;;;;5021207;28;20029;-67
2023/04/06 05:24:20;;;;;;;12.23;4.45;;;;;;;;;;5027129;28;20079;-67
2023/04/06 05:26:46;;;;;;;12.10;4.65;;;;;;;;;;5028972;28;20473;-67
2023/04/06 05:29:11;;;;;;;11.75;4.10;;;;;;;;;;5021696;28;20100;-67
2023/04/06 05:31:37;;;;;;;10.93;4.00;;;;;;;;;;5030246;28;20101;-66
2023/04/06 05:34:02;;;;;;;10.13;3.63;;;;;;;;;;5029879;28;20437;-67
2023/04/06 05:36:27;;;;;;;8.70;3.80;;;;;;;;;;5029418;28;20029;-65
2023/04/06 05:38:52;;;;;;;7.80;3.27;;;;;;;;;;5021949;28;20013;-67
2023/04/06 05:41:17;;;;;;;8.35;3.35;;;;;;;;;;5030673;28;20025;-65
2023/04/06 05:43:43;;;;;;;8.00;3.60;;;;;;;;;;5024704;28;20112;-66
2023/04/06 05:46:08;;;;;;;7.80;3.70;;;;;;;;;;5028310;28;20099;-66
2023/04/06 05:48:33;;;;;;;9.00;4.20;;;;;;;;;;5030418;28;20026;-67
2023/04/06 05:50:59;;;;;;;9.37;4.03;;;;;;;;;;5027210;28;20029;-67
2023/04/06 05:53:26;;;;;;;11.48;3.75;;;;;;;;;;5021165;28;20026;-67
2023/04/06 05:55:51;;;;;;;;;;;;;;;;;;5029142;28;20033;-68
2023/04/06 05:58:17;;;;;;;10.32;4.30;;;;;;;;;;5021142;28;19967;-66
2023/04/06 06:00:42;;;;;;;10.68;4.65;;;;;;;;;;5022772;28;20025;-67
2023/04/06 06:03:08;;;;;;;10.60;4.35;;;;;;;;;;5025164;28;20014;-66
2023/04/06 06:05:33;;;;;;;11.77;5.03;;;;;;;;;;5025054;28;20034;-66
2023/04/06 06:07:58;;;;;;;13.35;4.78;;;;;;;;;;5023978;28;20041;-66
2023/04/06 06:10:23;;;;;;;8.67;4.77;;;;;;;;;;5025152;28;20029;-67
2023/04/06 06:12:48;;;;;;;11.68;5.13;;;;;;;;;;5021334;28;20021;-67
2023/04/06 06:15:14;;;;;;;12.65;4.95;;;;;;;;;;5027550;28;20041;-67
2023/04/06 06:17:39;;;;;;;10.43;4.78;;;;;;;;;;5029982;28;20469;-67
2023/04/06 06:20:07;;;;;;;14.23;4.97;;;;;;;;;;5030323;28;20022;-66
2023/04/06 06:22:32;;;;;;;10.38;4.30;;;;;;;;;;5028195;28;20026;-65
2023/04/06 06:24:57;;;;;;;10.97;4.70;;;;;;;;;;5030179;28;20029;-65
2023/04/06 06:27:22;;;;;;;12.07;4.80;;;;;;;;;;5028706;28;20026;-65
2023/04/06 06:29:47;;;;;;;11.80;5.30;;;;;;;;;;5028849;28;20041;-65
2023/04/06 06:32:13;;;;;;;12.47;5.03;;;;;;;;;;5025795;28;20473;-64
2023/04/06 06:34:38;;;;;;;11.15;4.80;;;;;;;;;;5022650;28;20060;-66
2023/04/06 06:37:03;;;;;;;10.90;4.70;;;;;;;;;;5023332;28;20025;-67
2023/04/06 06:39:28;;;;;;;9.00;4.07;;;;;;;;;;5026277;28;20030;-67
2023/04/06 06:41:55;;;;;;;10.10;4.70;;;;;;;;;;5015944;28;20444;-66
2023/04/06 06:44:20;;;;;;;10.55;4.43;;;;;;;;;;5019975;28;20036;-67
2023/04/06 06:46:45;;;;;;;11.43;4.72;;;;;;;;;;5028037;28;20025;-65
2023/04/06 06:49:12;;;;;;;10.27;4.33;;;;;;;;;;5022324;28;20037;-65
2023/04/06 06:51:37;;;;;;;10.52;4.60;;;;;;;;;;5017651;28;20116;-66
2023/04/06 06:54:02;;;;;;;9.88;4.47;;;;;;;;;;5028097;28;20171;-67
2023/04/06 06:56:27;;;;;;;9.90;4.07;;;;;;;;;;5031050;28;20044;-67
2023/04/06 06:58:52;;;;;;;10.00;4.63;;;;;;;;;;5020699;28;20484;-66
2023/04/06 07:01:18;;;;;;;11.52;4.53;;;;;;;;;;5013675;28;20029;-67
2023/04/06 07:03:43;;;;;;;9.57;3.85;;;;;;;;;;5014064;28;20026;-68
2023/04/06 07:06:08;;;;;;;10.27;4.60;;;;;;;;;;5022675;28;20052;-67
2023/04/06 07:08:33;;;;;;;11.55;4.50;;;;;;;;;;5022177;28;20029;-67
2023/04/06 07:10:58;;;;;;;8.70;4.07;;;;;;;;;;5020688;28;20017;-67
2023/04/06 07:13:24;;;;;;;10.83;4.67;;;;;;;;;;5016474;28;20022;-66
2023/04/06 07:15:50;;;;;;;11.45;4.82;;;;;;;;;;5019046;28;20069;-67
2023/04/06 07:18:15;;;;;;;12.05;4.45;;;;;;;;;;5038959;28;20029;-67
2023/04/06 07:20:40;;;;;;;12.77;5.20;;;;;;;;;;5024386;28;20026;-69
2023/04/06 07:23:06;;;;;;;10.18;5.07;;;;;;;;;;5036490;28;20413;-67
2023/04/06 07:25:31;;;;;;;8.93;4.47;;;;;;;;;;5015083;28;20026;-66
2023/04/06 07:27:56;;;;;;;9.25;4.70;;;;;;;;;;5012792;28;20068;-67
2023/04/06 07:30:22;;;;;;;9.60;4.67;;;;;;;;;;5014369;28;20030;-66
2023/04/06 07:32:47;;;;;;;10.25;4.28;;;;;;;;;;5026385;28;20077;-65
2023/04/06 07:35:12;;;;;;;12.02;4.60;;;;;;;;;;5023324;28;20481;-67
2023/04/06 07:37:38;;;;;;;9.63;4.13;;;;;;;;;;5025533;28;20025;-67
2023/04/06 07:40:03;;;;;;;10.63;4.27;;;;;;;;;;5018573;28;20029;-67
2023/04/06 07:42:28;;;;;;;9.83;4.83;;;;;;;;;;5016502;28;20397;-67
2023/04/06 07:44:53;;;;;;;10.77;4.90;;;;;;;;;;5028634;28;20432;-66
2023/04/06 07:47:19;;;;;;;9.57;4.20;;;;;;;;;;5039588;28;20025;-68
2023/04/06 07:49:45;;;;;;;10.32;4.30;;;;;;;;;;5032668;28;20026;-67
2023/04/06 07:52:10;;;;;;;8.57;4.10;;;;;;;;;;5024645;28;20481;-68
2023/04/06 07:54:35;;;;;;;11.48;4.30;;;;;;;;;;5022419;28;20123;-67
2023/04/06 07:57:00;;;;;;;10.35;4.20;;;;;;;;;;5018254;28;20409;-67
2023/04/06 07:59:25;;;;;;;9.18;4.60;;;;;;;;;;5032147;28;20018;-67
2023/04/06 08:01:50;;;;;;;10.17;4.20;;;;;;;;;;5032770;28;20057;-67
2023/04/06 08:04:15;;;;;;;7.53;4.00;;;;;;;;;;5030844;28;20013;-66
2023/04/06 08:06:41;;;;;;;10.57;4.60;;;;;;;;;;5022674;28;20053;-66
2023/04/06 08:09:06;;;;;;;10.63;4.32;;;;;;;;;;5022949;28;20022;-67
2023/04/06 08:11:31;;;;;;;8.00;4.18;;;;;;;;;;5014001;28;20014;-67
2023/04/06 08:13:56;;;;;;;8.43;4.05;;;;;;;;;;5012809;28;20033;-65
2023/04/06 08:16:22;;;;;;;8.65;4.28;;;;;;;;;;5015303;28;20033;-67
2023/04/06 08:18:47;;;;;;;8.95;4.15;;;;;;;;;;5014120;28;20018;-64
2023/04/06 08:21:12;;;;;;;8.97;4.10;;;;;;;;;;5024258;28;20385;-67
2023/04/06 08:23:37;;;;;;;7.70;4.37;;;;;;;;;;5028632;28;20112;-66
2023/04/06 08:26:02;;;;;;;10.52;4.00;;;;;;;;;;5011816;28;20022;-66
2023/04/06 08:28:28;;;;;;;7.97;3.97;;;;;;;;;;5011872;28;20049;-67
2023/04/06 08:30:53;;;;;;;9.38;4.38;;;;;;;;;;5011967;28;20021;-65
2023/04/06 08:33:18;;;;;;;7.87;3.80;;;;;;;;;;5038831;28;20025;-67
2023/04/06 08:35:43;;;;;;;9.85;4.57;;;;;;;;;;5023513;28;20052;-68
2023/04/06 08:38:08;;;;;;;9.55;4.40;;;;;;;;;;5026582;28;20473;-65
2023/04/06 08:40:37;;;;;;;8.00;4.00;;;;;;;;;;5031524;28;20029;-65
2023/04/06 08:43:03;;;;;;;7.55;3.80;;;;;;;;;;5031521;28;20088;-66
2023/04/06 08:45:29;;;;;;;8.57;3.88;;;;;;;;;;5031613;28;20528;-67
2023/04/06 08:47:56;;;;;;;8.95;4.15;;;;;;;;;;5016712;28;20029;-66
2023/04/06 08:50:22;;;;;;;6.68;4.00;;;;;;;;;;5028897;28;20025;-68
2023/04/06 08:52:48;;;;;;;7.63;4.03;;;;;;;;;;5017788;28;20022;-67
2023/04/06 08:55:14;;;;;;;8.23;3.67;;;;;;;;;;5027663;28;20029;-64
2023/04/06 08:57:40;;;;;;;6.07;3.05;;;;;;;;;;5015284;28;20022;-65
2023/04/06 09:00:06;;;;;;;7.65;3.40;;;;;;;;;;5012820;28;20022;-65
2023/04/06 09:02:32;;;;;;;8.13;3.35;;;;;;;;;;5016924;28;20036;-66
2023/04/06 09:04:58;;;;;;;7.10;3.05;;;;;;;;;;5017356;28;20021;-67
2023/04/06 09:07:23;;;;;;;6.95;2.85;;;;;;;;;;5020955;28;20057;-66
2023/04/06 09:09:49;;;;;;;6.28;3.08;;;;;;;;;;5019533;28;20445;-67
2023/04/06 09:12:28;;;;;;;6.15;2.97;;;;;;;;;;5011794;28;20022;-66
2023/04/06 09:14:53;;;;;;;7.93;2.97;;;;;;;;;;5011675;28;20551;-65
2023/04/06 09:17:22;;;;;;;7.28;3.00;;;;;;;;;;5011773;28;20206;-66
2023/04/06 09:19:48;;;;;;;6.03;2.97;;;;;;;;;;5015590;28;20539;-67
2023/04/06 09:22:13;;;;;;;5.95;3.20;;;;;;;;;;5022544;28;20107;-69
2023/04/06 09:24:45;;;;;;;6.33;2.83;;;;;;;;;;5039153;28;20032;-66
2023/04/06 09:27:11;;;;;;;6.63;3.15;;;;;;;;;;5030250;28;21023;-67
2023/04/06 09:29:36;;;;;;;7.07;2.85;;;;;;;;;;5030881;28;20108;-66
2023/04/06 09:32:02;;;;;;;6.95;3.00;;;;;;;;;;5030569;28;20021;-67
2023/04/06 09:34:27;;;;;;;5.93;3.08;;;;;;;;;;5030878;28;20032;-67
2023/04/06 09:36:53;;;;;;;6.13;3.00;;;;;;;;;;5028631;28;20080;-67
2023/04/06 09:39:20;;;;;;;7.20;2.87;;;;;;;;;;5029796;28;20087;-66
2023/04/06 09:41:48;;;;;;;6.60;2.90;;;;;;;;;;5021058;28;20696;-67
2023/04/06 09:44:13;;;;;;;5.95;2.70;;;;;;;;;;5012468;28;20076;-64
2023/04/06 09:46:39;;;;;;;5.05;2.70;;;;;;;;;;5012513;28;20410;-67
2023/04/06 09:49:05;;;;;;;4.70;2.50;;;;;;;;;;5011027;28;20429;-66
2023/04/06 09:51:35;;;;;;;5.90;3.03;;;;;;;;;;5015992;28;20029;-68
2023/04/06 09:54:02;;;;;;;5.63;3.03;;;;;;;;;;5022615;28;20028;-66
2023/04/06 09:56:28;;;;;;;6.47;2.70;;;;;;;;;;5022302;28;20029;-67
2023/04/06 09:58:56;;;;;;;5.63;2.80;;;;;;;;;;5029778;28;20020;-67
2023/04/06 10:01:23;;;;;;;5.93;2.83;;;;;;;;;;5030853;28;20029;-67
2023/04/06 10:03:54;;;;;;;5.43;2.35;;;;;;;;;;5030586;28;20047;-67
2023/04/06 10:06:21;;;;;;;5.45;2.65;;;;;;;;;;5016192;28;20034;-67
2023/04/06 10:08:47;;;;;;;5.95;2.60;;;;;;;;;;5015643;28;20503;-66
2023/04/06 10:11:12;;;;;;;5.57;2.45;;;;;;;;;;5021400;28;20017;-66
2023/04/06 10:13:37;;;;;;;7.57;2.80;;;;;;;;;;5011270;28;20358;-66
2023/04/06 10:16:03;;;;;;;5.32;2.75;;;;;;;;;;5010845;28;20409;-65
2023/04/06 10:18:29;;;;;;;5.60;2.60;;;;;;;;;;5010381;28;20105;-67
2023/04/06 10:21:03;;;;;;;6.47;2.97;;;;;;;;;;5013267;28;20032;-67
2023/04/06 10:23:37;;;;;;;5.68;2.90;;;;;;;;;;5027355;28;20021;-66
2023/04/06 10:26:03;;;;;;;6.75;3.25;;;;;;;;;;5030328;28;20045;-64
2023/04/06 10:28:35;;;;;;;5.63;2.78;;;;;;;;;;5029572;28;20033;-65
2023/04/06 10:31:01;;;;;;;4.53;2.40;;;;;;;;;;5036380;28;20048;-64
2023/04/06 10:33:27;;;;;;;5.35;2.83;;;;;;;;;;5034469;28;20083;-66
2023/04/06 10:35:52;;;;;;;6.03;2.70;;;;;;;;;;5030393;28;20448;-67
2023/04/06 10:38:21;;;;;;;5.37;2.87;;;;;;;;;;5034045;28;20021;-66
2023/04/06 10:40:47;;;;;;;6.10;2.90;;;;;;;;;;5040073;28;20042;-67
2023/04/06 10:43:14;;;;;;;7.13;3.00;;;;;;;;;;5034274;28;20114;-66
2023/04/06 10:45:39;;;;;;;6.18;3.03;;;;;;;;;;5033876;28;20105;-67
2023/04/06 10:48:15;;;;;;;6.38;3.10;;;;;;;;;;5033339;28;20385;-66
2023/04/06 10:50:41;;;;;;;5.63;2.85;;;;;;;;;;5021639;28;20101;-67
2023/04/06 10:53:06;;;;;;;6.80;3.28;;;;;;;;;;5028285;28;20021;-67
2023/04/06 10:55:31;;;;;;;6.43;2.73;;;;;;;;;;5033057;28;20076;-66
2023/04/06 10:57:57;;;;;;;6.77;2.80;;;;;;;;;;5027195;28;20026;-66
2023/04/06 11:00:22;;;;;;;6.00;3.13;;;;;;;;;;5021957;28;20022;-67
2023/04/06 11:02:48;;;;;;;6.25;2.70;;;;;;;;;;5013742;28;20381;-67
2023/04/06 11:05:13;;;;;;;6.07;3.05;;;;;;;;;;5021225;28;20033;-67
2023/04/06 11:07:39;;;;;;;6.63;3.08;;;;;;;;;;5024011;28;20024;-66
2023/04/06 11:10:04;;;;;;;6.90;3.30;;;;;;;;;;5028533;28;20556;-67
2023/04/06 11:12:30;;;;;;;6.97;2.97;;;;;;;;;;5033330;28;20083;-66
2023/04/06 11:15:00;;;;;;;5.28;2.65;;;;;;;;;;5033866;28;20998;-66
2023/04/06 11:17:26;;;;;;;5.85;2.70;;;;;;;;;;5033332;28;20036;-66
2023/04/06 11:19:51;;;;;;;5.10;2.70;;;;;;;;;;5019805;28;20100;-67
2023/04/06 11:22:17;;;;;;;5.83;2.90;;;;;;;;;;5029523;28;20017;-67
2023/04/06 11:24:42;;;;;;;6.43;2.57;;;;;;;;;;5033011;28;20496;-67
2023/04/06 11:27:07;;;;;;;5.57;2.40;;;;;;;;;;5032606;28;20021;-66
2023/04/06 11:29:33;;;;;;;6.37;2.33;;;;;;;;;;5033485;28;20108;-67
2023/04/06 11:31:59;;;;;;;6.32;2.47;;;;;;;;;;5033697;28;20024;-67
2023/04/06 11:34:25;;;;;;;5.93;2.70;;;;;;;;;;5023231;28;20100;-65
2023/04/06 11:37:09;;;;;;;5.75;2.70;;;;;;;;;;5012497;28;20033;-67
2023/04/06 11:39:46;;;;;;;7.38;2.67;;;;;;;;;;5023473;28;20060;-65
2023/04/06 11:42:11;;;;;;;5.40;2.30;;;;;;;;;;5033202;28;20075;-67
2023/04/06 11:44:39;;;;;;;4.83;2.23;;;;;;;;;;5033373;28;20117;-66
2023/04/06 11:47:06;;;;;;;5.00;2.47;;;;;;;;;;5032491;28;20121;-66
2023/04/06 11:49:32;;;;;;;5.88;2.35;;;;;;;;;;5022097;28;20030;-66
2023/04/06 11:51:57;;;;;;;7.95;2.90;;;;;;;;;;5026966;28;20151;-67
2023/04/06 11:54:32;;;;;;;6.67;2.90;;;;;;;;;;5032874;28;20033;-66
2023/04/06 11:56:57;;;;;;;5.60;2.83;;;;;;;;;;5032344;28;20033;-67
2023/04/06 11:59:22;;;;;;;6.90;2.80;;;;;;;;;;5033531;28;20120;-66
2023/04/06 12:01:48;;;;;;;4.90;2.60;;;;;;;;;;5033742;28;20055;-65
2023/04/06 12:04:13;;;;;;;6.05;2.65;;;;;;;;;;5025309;28;20022;-65
2023/04/06 12:06:38;;;;;;;5.03;2.77;;;;;;;;;;5015088;28;20022;-67
2023/04/06 12:09:03;;;;;;;6.25;3.17;;;;;;;;;;5013455;28;20076;-66
2023/04/06 12:11:28;;;;;;;7.03;3.28;;;;;;;;;;5030441;28;20025;-68
2023/04/06 12:13:54;;;;;;;5.80;3.20;;;;;;;;;;5032163;28;20084;-66
2023/04/06 12:16:19;;;;;;;7.47;3.17;;;;;;;;;;5031881;28;20091;-66
2023/04/06 12:18:44;;;;;;;5.55;2.67;;;;;;;;;;5021104;28;20037;-66
2023/04/06 12:21:10;;;;;;;6.63;3.00;;;;;;;;;;5027407;28;20025;-66
2023/04/06 12:23:35;;;;;;;6.00;2.83;;;;;;;;;;5031019;28;20096;-65
2023/04/06 12:26:01;;;;;;;5.80;2.70;;;;;;;;;;5031968;28;20029;-65
2023/04/06 12:28:26;;;;;;;6.00;2.70;;;;;;;;;;5031652;28;20064;-66
2023/04/06 12:30:52;;;;;;;5.10;2.60;;;;;;;;;;5030773;28;20102;-67
2023/04/06 12:33:18;;;;;;;5.60;2.72;;;;;;;;;;5022288;28;20464;-67
2023/04/06 12:35:43;;;;;;;5.95;2.58;;;;;;;;;;5026761;28;20017;-67
2023/04/06 12:38:09;;;;;;;4.88;2.50;;;;;;;;;;5024167;28;20156;-66
2023/04/06 12:40:38;;;;;;;5.77;2.83;;;;;;;;;;5024569;28;20046;-66
2023/04/06 12:43:03;;;;;;;5.15;2.47;;;;;;;;;;5031495;28;20452;-66
2023/04/06 12:45:30;;;;;;;5.23;2.70;;;;;;;;;;5021235;28;20039;-67
2023/04/06 12:47:55;;;;;;;6.38;2.88;;;;;;;;;;5015212;28;20021;-67
2023/04/06 12:50:20;;;;;;;5.88;3.08;;;;;;;;;;5012671;28;20026;-67
2023/04/06 12:52:45;;;;;;;6.43;2.70;;;;;;;;;;5026798;28;20035;-67
2023/04/06 12:55:10;;;;;;;5.40;2.80;;;;;;;;;;5031072;28;20030;-67
2023/04/06 12:57:36;;;;;;;5.63;2.90;;;;;;;;;;5030506;28;20319;-66
2023/04/06 13:00:02;;;;;;;5.50;2.83;;;;;;;;;;5030204;28;20428;-67
2023/04/06 13:02:28;;;;;;;5.50;2.47;;;;;;;;;;5019745;28;20486;-65
2023/04/06 13:04:53;;;;;;;4.90;2.58;;;;;;;;;;5023662;28;20032;-66
2023/04/06 13:07:18;;;;;;;7.32;2.72;;;;;;;;;;5016447;28;20448;-67
2023/04/06 13:09:43;;;;;;;5.95;2.65;;;;;;;;;;5016728;28;20026;-66
2023/04/06 13:12:08;;;;;;;6.43;2.50;;;;;;;;;;5018442;28;20044;-66
2023/04/06 13:14:33;;;;;;;5.80;2.83;;;;;;;;;;5030469;28;20397;-65
2023/04/06 13:16:59;;;;;;;5.32;3.00;;;;;;;;;;5018875;28;20034;-67
2023/04/06 13:19:25;;;;;;;6.00;2.90;;;;;;;;;;5022641;28;20018;-66
2023/04/06 13:21:50;;;;;;;6.10;2.80;;;;;;;;;;5033677;28;20021;-67
2023/04/06 13:24:15;;;;;;;5.87;2.93;;;;;;;;;;5032921;28;20083;-69
2023/04/06 13:26:40;;;;;;;6.18;2.88;;;;;;;;;;5032011;28;21002;-67
2023/04/06 13:29:06;;;;;;;6.47;2.73;;;;;;;;;;5025129;28;20028;-66
2023/04/06 13:31:31;;;;;;;5.95;3.10;;;;;;;;;;5027404;28;20022;-65
2023/04/06 13:33:56;;;;;;;4.77;2.53;;;;;;;;;;5019074;28;20091;-66
2023/04/06 13:36:21;;;;;;;5.07;2.53;;;;;;;;;;5032879;28;20029;-65
2023/04/06 13:38:47;;;;;;;7.85;2.75;;;;;;;;;;5030231;28;20547;-65
2023/04/06 13:41:22;;;;;;;5.93;2.57;;;;;;;;;;5024110;28;20040;-65
2023/04/06 13:43:47;;;;;;;4.85;2.88;;;;;;;;;;5018303;28;20459;-65
2023/04/06 13:46:13;;;;;;;7.40;3.10;;;;;;;;;;5021224;28;20025;-66
2023/04/06 13:48:38;;;;;;;5.60;2.90;;;;;;;;;;5018251;28;20035;-66
2023/04/06 13:51:13;;;;;;;5.20;2.70;;;;;;;;;;5023215;28;20020;-67
2023/04/06 13:53:38;;;;;;;6.47;3.35;;;;;;;;;;5024418;28;20083;-66
2023/04/06 13:56:03;;;;;;;10.13;2.90;;;;;;;;;;5019734;28;20030;-66
2023/04/06 13:58:28;;;;;;;6.20;2.80;;;;;;;;;;5013854;28;20055;-66
2023/04/06 14:00:54;;;;;;;6.25;2.70;;;;;;;;;;5022193;28;20111;-66
2023/04/06 14:03:20;;;;;;;4.70;2.05;;;;;;;;;;5021052;28;20624;-67
2023/04/06 14:05:45;;;;;;;5.50;2.75;;;;;;;;;;5041034;28;20036;-67
2023/04/06 14:08:10;;;;;;;5.33;2.90;;;;;;;;;;5032365;28;20045;-65
2023/04/06 14:10:40;;;;;;;6.40;2.90;;;;;;;;;;5042667;28;20033;-65
2023/04/06 14:13:05;;;;;;;5.53;2.78;;;;;;;;;;5034218;28;20105;-65
2023/04/06 14:15:30;;;;;;;6.00;3.00;;;;;;;;;;5035387;28;20120;-67
2023/04/06 14:17:56;;;;;;;7.20;2.60;;;;;;;;;;5025537;28;20040;-65
2023/04/06 14:20:21;;;;;;;6.72;2.58;;;;;;;;;;5042972;28;20443;-65
2023/04/06 14:22:46;;;;;;;5.13;2.80;;;;;;;;;;5032197;28;20020;-67
2023/04/06 14:25:12;;;;;;;5.70;2.80;;;;;;;;;;5042148;28;20017;-65
2023/04/06 14:27:37;;;;;;;5.70;2.95;;;;;;;;;;5050136;28;20088;-66
2023/04/06 14:30:02;;;;;;;6.57;2.88;;;;;;;;;;5039723;28;20063;-66
2023/04/06 14:32:28;;;;;;;5.55;3.28;;;;;;;;;;5018199;28;20025;-66